createdAt,value
2023-01-19T00:00:12.880Z,26.10
2023-01-19T00:02:39.247Z,23.50
2023-01-19T00:05:06.067Z,23.07
2023-01-19T00:07:32.757Z,20.77
2023-01-19T00:09:59.258Z,23.07
2023-01-19T00:12:26.355Z,21.03
2023-01-19T00:14:52.756Z,19.37
2023-01-19T00:17:19.104Z,18.70
2023-01-19T00:19:45.445Z,20.67
2023-01-19T00:22:11.763Z,24.10
2023-01-19T00:24:38.163Z,19.30
2023-01-19T00:27:04.560Z,20.47
2023-01-19T00:29:33.339Z,21.37
2023-01-19T00:32:04.549Z,29.60
2023-01-19T00:34:39.470Z,19.80
2023-01-19T00:37:07.147Z,21.33
2023-01-19T00:39:33.495Z,23.10
2023-01-19T00:42:18.517Z,20.23
2023-01-19T00:44:44.915Z,18.57
2023-01-19T00:47:11.322Z,18.47
2023-01-19T00:49:37.724Z,29.87
2023-01-19T00:52:04.234Z,30.00
2023-01-19T00:54:30.657Z,23.77
2023-01-19T00:56:56.996Z,20.13
2023-01-19T00:59:23.358Z,21.47
2023-01-19T01:01:49.780Z,25.07
2023-01-19T01:04:16.259Z,21.23
2023-01-19T01:06:42.682Z,24.17
2023-01-19T01:09:11.834Z,23.67
2023-01-19T01:11:42.455Z,27.70
2023-01-19T01:14:11.102Z,21.03
2023-01-19T01:16:37.558Z,22.07
2023-01-19T01:19:04.010Z,22.97
2023-01-19T01:21:30.389Z,22.03
2023-01-19T01:23:56.737Z,28.63
2023-01-19T01:26:23.243Z,18.27
2023-01-19T01:28:50.552Z,20.13
2023-01-19T01:31:16.928Z,20.13
2023-01-19T01:33:43.405Z,21.33
2023-01-19T01:36:11.472Z,26.00
2023-01-19T01:38:39.457Z,25.63
2023-01-19T01:41:06.101Z,22.53
2023-01-19T01:43:44.775Z,22.43
2023-01-19T01:46:11.885Z,23.00
2023-01-19T01:48:40.034Z,28.57
2023-01-19T01:51:25.789Z,20.60
2023-01-19T01:54:19.817Z,23.63
2023-01-19T01:56:52.781Z,18.80
2023-01-19T01:59:29.679Z,20.93
2023-01-19T02:02:18.767Z,23.03
2023-01-19T02:04:53.989Z,24.50
2023-01-19T02:07:48.223Z,20.63
2023-01-19T02:10:33.440Z,23.40
2023-01-19T02:13:18.702Z,18.93
2023-01-19T02:15:45.714Z,21.30
2023-01-19T02:18:12.157Z,21.43
2023-01-19T02:20:42.256Z,23.07
2023-01-19T02:23:16.756Z,22.83
2023-01-19T02:25:43.126Z,22.87
2023-01-19T02:28:09.947Z,18.60
2023-01-19T02:30:39.867Z,24.40
2023-01-19T02:33:07.080Z,17.23
2023-01-19T02:35:35.953Z,22.17
2023-01-19T02:38:03.884Z,20.70
2023-01-19T02:40:30.605Z,21.13
2023-01-19T02:43:00.902Z,21.43
2023-01-19T02:45:27.874Z,18.17
2023-01-19T02:47:54.449Z,28.13
2023-01-19T02:50:38.130Z,18.67
2023-01-19T02:53:42.727Z,18.50
2023-01-19T02:56:19.142Z,26.63
2023-01-19T02:59:19.553Z,21.53
2023-01-19T03:02:04.483Z,21.83
2023-01-19T03:04:56.312Z,21.27
2023-01-19T03:07:40.041Z,18.07
2023-01-19T03:10:12.200Z,18.37
2023-01-19T03:12:52.088Z,19.53
2023-01-19T03:15:23.238Z,22.97
2023-01-19T03:17:51.783Z,15.53
2023-01-19T03:20:24.573Z,21.50
2023-01-19T03:23:00.518Z,19.27
2023-01-19T03:25:31.194Z,32.30
2023-01-19T03:27:57.775Z,21.10
2023-01-19T03:30:28.870Z,16.40
2023-01-19T03:33:01.130Z,20.90
2023-01-19T03:35:32.940Z,16.53
2023-01-19T03:38:03.604Z,17.67
2023-01-19T03:40:33.221Z,20.83
2023-01-19T03:43:02.466Z,17.20
2023-01-19T03:45:32.558Z,17.03
2023-01-19T03:47:59.783Z,15.20
2023-01-19T03:50:29.470Z,17.43
2023-01-19T03:53:05.321Z,21.27
2023-01-19T03:55:31.995Z,18.83
2023-01-19T03:57:58.470Z,18.50
2023-01-19T04:00:25.072Z,17.37
2023-01-19T04:02:51.731Z,17.97
2023-01-19T04:05:19.047Z,18.37
2023-01-19T04:07:48.368Z,15.57
2023-01-19T04:10:16.671Z,20.50
2023-01-19T04:12:43.087Z,17.97
2023-01-19T04:15:09.507Z,18.13
2023-01-19T04:17:35.934Z,19.83
2023-01-19T04:20:02.352Z,23.47
2023-01-19T04:22:29.478Z,19.17
2023-01-19T04:24:55.922Z,19.77
2023-01-19T04:27:22.364Z,19.60
2023-01-19T04:29:48.783Z,20.70
2023-01-19T04:32:15.222Z,21.50
2023-01-19T04:34:41.613Z,17.70
2023-01-19T04:37:08.445Z,15.73
2023-01-19T04:39:35.080Z,18.57
2023-01-19T04:42:01.403Z,16.20
2023-01-19T04:44:28.644Z,16.07
2023-01-19T04:46:55.048Z,21.37
2023-01-19T04:49:21.420Z,14.83
2023-01-19T04:51:47.765Z,24.17
2023-01-19T04:54:14.171Z,20.93
2023-01-19T04:56:43.470Z,18.70
2023-01-19T04:59:09.872Z,19.00
2023-01-19T05:01:36.705Z,16.53
2023-01-19T05:04:06.255Z,23.30
2023-01-19T05:06:33.444Z,22.93
2023-01-19T05:08:59.919Z,24.30
2023-01-19T05:11:26.315Z,24.60
2023-01-19T05:13:52.831Z,22.90
2023-01-19T05:16:19.185Z,23.73
2023-01-19T05:18:45.546Z,24.33
2023-01-19T05:21:11.888Z,32.90
2023-01-19T05:23:38.435Z,26.60
2023-01-19T05:26:05.045Z,27.70
2023-01-19T05:28:33.036Z,25.30
2023-01-19T05:30:59.716Z,26.57
2023-01-19T05:33:26.139Z,25.57
2023-01-19T05:35:53.506Z,22.67
2023-01-19T05:38:33.890Z,33.23
2023-01-19T05:41:01.143Z,32.03
2023-01-19T05:43:27.471Z,25.27
2023-01-19T05:45:53.799Z,38.80
2023-01-19T05:48:20.223Z,25.20
2023-01-19T05:50:49.205Z,26.80
2023-01-19T05:53:16.715Z,27.63
2023-01-19T05:55:43.116Z,16.87
2023-01-19T05:58:09.506Z,24.73
2023-01-19T06:00:35.993Z,28.53
2023-01-19T06:03:02.932Z,18.67
2023-01-19T06:05:29.662Z,26.00
2023-01-19T06:07:57.001Z,22.57
2023-01-19T06:10:23.734Z,24.83
2023-01-19T06:12:51.599Z,31.47
2023-01-19T06:15:18.529Z,29.30
2023-01-19T06:17:44.910Z,23.43
2023-01-19T06:20:13.798Z,22.93
2023-01-19T06:22:40.156Z,25.73
2023-01-19T06:25:06.794Z,21.20
2023-01-19T06:27:33.117Z,21.93
2023-01-19T06:29:59.429Z,20.17
2023-01-19T06:32:25.761Z,23.77
2023-01-19T06:34:53.957Z,28.87
2023-01-19T06:37:20.501Z,20.93
2023-01-19T06:39:46.867Z,26.63
2023-01-19T06:42:13.324Z,20.37
2023-01-19T06:44:47.061Z,22.83
2023-01-19T06:47:15.907Z,17.13
2023-01-19T06:49:42.913Z,20.20
2023-01-19T06:52:11.370Z,18.77
2023-01-19T06:54:38.112Z,14.30
2023-01-19T06:57:04.609Z,21.03
2023-01-19T06:59:31.676Z,25.90
2023-01-19T07:01:58.918Z,18.23
2023-01-19T07:04:26.176Z,21.67
2023-01-19T07:06:52.692Z,25.80
2023-01-19T07:09:20.331Z,20.27
2023-01-19T07:11:48.171Z,23.40
2023-01-19T07:14:14.918Z,24.30
2023-01-19T07:16:41.469Z,24.67
2023-01-19T07:19:10.527Z,26.33
2023-01-19T07:21:37.321Z,25.97
2023-01-19T07:24:03.747Z,29.03
2023-01-19T07:26:30.789Z,24.77
2023-01-19T07:28:57.238Z,30.83
2023-01-19T07:31:23.906Z,28.67
2023-01-19T07:33:50.401Z,23.90
2023-01-19T07:36:16.841Z,25.33
2023-01-19T07:38:43.244Z,23.30
2023-01-19T07:41:10.239Z,30.80
2023-01-19T07:43:36.754Z,27.87
2023-01-19T07:46:05.195Z,29.83
2023-01-19T07:48:31.683Z,21.50
2023-01-19T07:51:05.137Z,27.57
2023-01-19T07:53:32.245Z,25.23
2023-01-19T07:55:58.615Z,27.17
2023-01-19T07:58:26.309Z,26.93
2023-01-19T08:00:53.045Z,26.23
2023-01-19T08:03:19.493Z,25.67
2023-01-19T08:05:51.292Z,31.87
2023-01-19T08:08:18.185Z,32.60
2023-01-19T08:10:45.082Z,31.80
2023-01-19T08:13:11.487Z,24.60
2023-01-19T08:15:37.940Z,29.67
2023-01-19T08:18:05.608Z,26.97
2023-01-19T08:20:32.312Z,33.30
2023-01-19T08:23:02.869Z,29.30
2023-01-19T08:25:33.663Z,33.30
2023-01-19T08:28:00.184Z,32.63
2023-01-19T08:30:26.768Z,25.63
2023-01-19T08:32:54.712Z,31.23
2023-01-19T08:35:22.416Z,27.33
2023-01-19T08:37:48.847Z,21.47
2023-01-19T08:40:15.401Z,25.70
2023-01-19T08:42:41.825Z,29.27
2023-01-19T08:45:09.223Z,33.40
2023-01-19T08:47:35.662Z,29.23
2023-01-19T08:50:02.097Z,30.53
2023-01-19T08:52:29.320Z,38.67
2023-01-19T08:54:55.696Z,35.67
2023-01-19T08:57:22.085Z,32.37
2023-01-19T08:59:48.485Z,36.93
2023-01-19T09:02:14.912Z,41.03
2023-01-19T09:04:41.391Z,34.83
2023-01-19T09:07:07.751Z,35.60
2023-01-19T09:09:37.685Z,37.37
2023-01-19T09:12:04.303Z,32.87
2023-01-19T09:14:30.805Z,40.37
2023-01-19T09:16:57.154Z,39.43
2023-01-19T09:19:23.548Z,47.60
2023-01-19T09:21:50.904Z,48.83
2023-01-19T09:24:17.272Z,45.00
2023-01-19T09:26:43.621Z,45.07
2023-01-19T09:29:10.075Z,40.50
2023-01-19T09:31:37.260Z,44.60
2023-01-19T09:34:03.657Z,37.30
2023-01-19T09:36:30.283Z,62.37
2023-01-19T09:38:56.709Z,41.70
2023-01-19T09:41:25.925Z,47.13
2023-01-19T09:43:57.693Z,41.73
2023-01-19T09:46:34.342Z,54.37
2023-01-19T09:49:16.677Z,47.43
2023-01-19T09:51:48.617Z,46.63
2023-01-19T09:54:17.716Z,50.40
2023-01-19T09:56:46.095Z,48.70
2023-01-19T09:59:25.339Z,47.87
2023-01-19T10:02:09.913Z,51.20
2023-01-19T10:04:44.025Z,43.00
2023-01-19T10:07:44.623Z,54.70
2023-01-19T10:10:25.756Z,54.20
2023-01-19T10:13:20.001Z,52.10
2023-01-19T10:15:54.531Z,43.87
2023-01-19T10:18:30.936Z,41.60
2023-01-19T10:21:23.308Z,56.20
2023-01-19T10:24:13.110Z,49.77
2023-01-19T10:26:42.685Z,49.30
2023-01-19T10:29:38.036Z,51.73
2023-01-19T10:32:21.199Z,51.10
2023-01-19T10:34:49.621Z,60.73
2023-01-19T10:37:29.718Z,55.07
2023-01-19T10:40:15.514Z,52.17
2023-01-19T10:42:42.083Z,52.03
2023-01-19T10:45:16.683Z,51.57
2023-01-19T10:47:44.992Z,67.23
2023-01-19T10:50:26.164Z,60.97
2023-01-19T10:52:57.399Z,54.00
2023-01-19T10:55:25.680Z,60.00
2023-01-19T10:57:53.475Z,48.73
2023-01-19T11:00:30.331Z,56.03
2023-01-19T11:02:56.807Z,58.90
2023-01-19T11:05:26.059Z,55.03
2023-01-19T11:07:52.572Z,60.37
2023-01-19T11:10:22.906Z,60.37
2023-01-19T11:13:00.946Z,52.90
2023-01-19T11:15:48.409Z,56.87
2023-01-19T11:18:33.868Z,63.57
2023-01-19T11:21:06.847Z,57.70
2023-01-19T11:23:41.872Z,60.60
2023-01-19T11:26:15.605Z,55.33
2023-01-19T11:28:51.253Z,63.07
2023-01-19T11:31:19.675Z,61.10
2023-01-19T11:33:54.811Z,60.60
2023-01-19T11:36:27.291Z,62.10
2023-01-19T11:38:59.162Z,54.57
2023-01-19T11:41:35.262Z,56.43
2023-01-19T11:44:23.410Z,50.83
2023-01-19T11:46:58.233Z,51.67
2023-01-19T11:49:41.791Z,65.93
2023-01-19T11:52:32.664Z,62.87
2023-01-19T11:55:36.316Z,73.73
2023-01-19T11:58:03.872Z,56.60
2023-01-19T12:00:39.276Z,62.90
2023-01-19T12:03:30.365Z,50.20
2023-01-19T12:06:11.679Z,64.73
2023-01-19T12:08:45.227Z,64.37
2023-01-19T12:11:18.698Z,75.60
2023-01-19T12:13:46.397Z,52.80
2023-01-19T12:16:24.501Z,60.87
2023-01-19T12:19:04.927Z,68.17
2023-01-19T12:21:31.271Z,73.40
2023-01-19T12:24:18.055Z,65.63
2023-01-19T12:27:01.910Z,72.47
2023-01-19T12:29:33.602Z,67.27
2023-01-19T12:32:16.502Z,72.80
2023-01-19T12:34:51.713Z,75.50
2023-01-19T12:37:39.462Z,88.90
2023-01-19T12:40:27.711Z,82.17
2023-01-19T12:43:05.576Z,71.53
2023-01-19T12:45:36.652Z,78.63
2023-01-19T12:48:04.531Z,84.70
2023-01-19T12:50:37.854Z,71.23
2023-01-19T12:53:15.473Z,75.97
2023-01-19T12:55:46.510Z,71.57
2023-01-19T12:58:20.823Z,83.90
2023-01-19T13:00:49.323Z,79.60
2023-01-19T13:03:18.881Z,76.70
2023-01-19T13:05:55.477Z,71.63
2023-01-19T13:08:24.608Z,78.30
2023-01-19T13:10:59.917Z,64.97
2023-01-19T13:13:29.222Z,71.03
2023-01-19T13:15:59.381Z,69.17
2023-01-19T13:18:39.704Z,53.53
2023-01-19T13:21:06.988Z,75.07
2023-01-19T13:23:51.593Z,56.30
2023-01-19T13:26:20.560Z,62.73
2023-01-19T13:28:54.763Z,55.87
2023-01-19T13:31:22.473Z,60.17
2023-01-19T13:33:58.568Z,90.20
2023-01-19T13:36:33.096Z,60.90
2023-01-19T13:39:03.751Z,72.87
2023-01-19T13:41:35.105Z,56.37
2023-01-19T13:44:07.129Z,67.27
2023-01-19T13:46:34.575Z,63.90
2023-01-19T13:49:11.591Z,57.57
2023-01-19T13:51:37.976Z,62.73
2023-01-19T13:54:06.029Z,61.77
2023-01-19T13:56:32.540Z,62.33
2023-01-19T13:59:07.016Z,55.87
2023-01-19T14:01:33.774Z,58.17
2023-01-19T14:04:00.601Z,58.30
2023-01-19T14:06:37.893Z,52.80
2023-01-19T14:09:18.864Z,44.23
2023-01-19T14:11:48.130Z,50.47
2023-01-19T14:14:25.655Z,43.87
2023-01-19T14:16:52.560Z,44.07
2023-01-19T14:19:18.942Z,44.20
2023-01-19T14:21:46.023Z,36.40
2023-01-19T14:24:18.350Z,52.30
2023-01-19T14:26:53.869Z,35.73
2023-01-19T14:29:29.246Z,35.10
2023-01-19T14:32:01.397Z,45.37
2023-01-19T14:34:43.015Z,41.40
2023-01-19T14:37:19.740Z,44.87
2023-01-19T14:39:49.304Z,48.77
2023-01-19T14:42:21.079Z,33.23
2023-01-19T14:44:51.712Z,36.70
2023-01-19T14:47:30.922Z,32.17
2023-01-19T14:50:02.007Z,29.60
2023-01-19T14:52:33.104Z,34.23
2023-01-19T14:55:02.956Z,35.87
2023-01-19T14:57:29.337Z,32.00
2023-01-19T14:59:55.754Z,37.90
2023-01-19T15:02:23.006Z,35.53
2023-01-19T15:04:51.357Z,35.33
2023-01-19T15:07:19.198Z,32.33
2023-01-19T15:09:47.169Z,29.13
2023-01-19T15:12:17.449Z,37.83
2023-01-19T15:14:45.068Z,37.17
2023-01-19T15:17:25.568Z,28.10
2023-01-19T15:19:55.848Z,37.73
2023-01-19T15:22:25.051Z,31.10
2023-01-19T15:24:51.481Z,38.23
2023-01-19T15:27:17.925Z,36.47
2023-01-19T15:29:44.980Z,47.40
2023-01-19T15:32:13.143Z,48.67
2023-01-19T15:34:39.663Z,41.03
2023-01-19T15:37:06.168Z,33.37
2023-01-19T15:39:32.751Z,30.90
2023-01-19T15:42:00.644Z,35.70
2023-01-19T15:44:27.056Z,32.90
2023-01-19T15:46:54.750Z,38.93
2023-01-19T15:49:21.217Z,41.93
2023-01-19T15:51:47.579Z,41.87
2023-01-19T15:54:19.314Z,30.87
2023-01-19T15:56:45.742Z,35.57
2023-01-19T15:59:12.211Z,30.77
2023-01-19T16:01:40.275Z,38.43
2023-01-19T16:04:09.415Z,34.40
2023-01-19T16:06:35.804Z,38.97
2023-01-19T16:09:03.725Z,33.90
2023-01-19T16:11:32.546Z,34.63
2023-01-19T16:13:59.219Z,37.10
2023-01-19T16:16:27.879Z,30.27
2023-01-19T16:18:54.651Z,35.50
2023-01-19T16:21:21.176Z,34.70
2023-01-19T16:23:47.606Z,41.80
2023-01-19T16:26:34.905Z,33.90
2023-01-19T16:29:08.506Z,39.20
2023-01-19T16:31:36.424Z,41.90
2023-01-19T16:34:02.845Z,36.03
2023-01-19T16:36:31.384Z,44.47
2023-01-19T16:38:59.767Z,40.03
2023-01-19T16:41:26.605Z,38.17
2023-01-19T16:43:54.565Z,41.47
2023-01-19T16:46:26.648Z,31.10
2023-01-19T16:48:58.188Z,40.07
2023-01-19T16:51:24.583Z,42.00
2023-01-19T16:53:50.980Z,38.20
2023-01-19T16:56:17.824Z,42.63
2023-01-19T16:58:44.603Z,37.77
2023-01-19T17:01:14.677Z,35.23
2023-01-19T17:03:42.010Z,40.37
2023-01-19T17:06:10.548Z,38.13
2023-01-19T17:08:37.851Z,45.33
2023-01-19T17:11:21.782Z,37.77
2023-01-19T17:13:52.011Z,47.13
2023-01-19T17:16:18.369Z,33.23
2023-01-19T17:18:45.221Z,30.97
2023-01-19T17:21:11.699Z,28.53
2023-01-19T17:23:42.652Z,25.67
2023-01-19T17:26:09.004Z,34.33
2023-01-19T17:28:35.621Z,28.60
2023-01-19T17:31:06.555Z,32.63
2023-01-19T17:33:33.265Z,39.33
2023-01-19T17:36:08.335Z,35.20
2023-01-19T17:38:35.410Z,38.97
2023-01-19T17:41:01.913Z,47.67
2023-01-19T17:43:28.285Z,40.27
2023-01-19T17:45:54.709Z,53.40
2023-01-19T17:48:21.128Z,47.23
2023-01-19T17:50:47.454Z,45.83
2023-01-19T17:53:13.797Z,42.07
2023-01-19T17:55:40.138Z,40.20
2023-01-19T17:58:06.524Z,54.93
2023-01-19T18:00:32.983Z,41.03
2023-01-19T18:02:59.440Z,41.83
2023-01-19T18:05:25.810Z,48.17
2023-01-19T18:07:52.174Z,46.50
2023-01-19T18:10:18.599Z,48.83
2023-01-19T18:12:45.180Z,44.77
2023-01-19T18:15:12.226Z,48.23
2023-01-19T18:17:38.598Z,53.37
2023-01-19T18:20:05.541Z,44.93
2023-01-19T18:22:32.159Z,46.73
2023-01-19T18:24:58.517Z,39.23
2023-01-19T18:27:25.004Z,54.53
2023-01-19T18:29:51.367Z,40.90
2023-01-19T18:32:17.826Z,44.40
2023-01-19T18:34:44.271Z,44.20
2023-01-19T18:37:10.675Z,51.57
2023-01-19T18:39:37.059Z,50.50
2023-01-19T18:42:03.467Z,54.27
2023-01-19T18:44:29.900Z,47.70
2023-01-19T18:46:56.602Z,51.83
2023-01-19T18:49:22.972Z,52.90
2023-01-19T18:51:49.316Z,46.23
2023-01-19T18:54:15.687Z,47.37
2023-01-19T18:56:42.015Z,43.60
2023-01-19T18:59:08.426Z,46.03
2023-01-19T19:01:35.839Z,53.80
2023-01-19T19:04:02.838Z,49.90
2023-01-19T19:06:29.205Z,50.80
2023-01-19T19:08:57.907Z,53.17
2023-01-19T19:11:24.889Z,46.03
2023-01-19T19:13:57.337Z,47.47
2023-01-19T19:16:23.791Z,58.47
2023-01-19T19:18:50.328Z,50.23
2023-01-19T19:21:18.534Z,48.33
2023-01-19T19:23:50.000Z,45.40
2023-01-19T19:26:16.420Z,50.37
2023-01-19T19:28:42.804Z,49.07
2023-01-19T19:31:15.012Z,51.27
2023-01-19T19:33:41.368Z,45.53
2023-01-19T19:36:09.202Z,56.10
2023-01-19T19:38:41.034Z,53.40
2023-01-19T19:41:09.197Z,59.70
2023-01-19T19:43:36.617Z,47.97
2023-01-19T19:46:11.494Z,54.23
2023-01-19T19:48:39.509Z,51.57
2023-01-19T19:51:18.415Z,43.60
2023-01-19T19:53:46.125Z,45.93
2023-01-19T19:56:13.458Z,43.73
2023-01-19T19:58:41.804Z,61.97
2023-01-19T20:01:10.676Z,54.93
2023-01-19T20:03:37.642Z,39.17
2023-01-19T20:06:05.984Z,41.70
2023-01-19T20:08:32.881Z,44.73
2023-01-19T20:11:10.912Z,39.23
2023-01-19T20:13:39.149Z,49.43
2023-01-19T20:16:10.177Z,53.67
2023-01-19T20:18:44.315Z,44.53
2023-01-19T20:21:13.209Z,41.23
2023-01-19T20:23:40.459Z,56.97
2023-01-19T20:26:09.210Z,38.73
2023-01-19T20:28:36.133Z,39.23
2023-01-19T20:31:32.649Z,43.50
2023-01-19T20:34:01.389Z,55.37
2023-01-19T20:36:28.801Z,52.87
2023-01-19T20:38:55.532Z,49.70
2023-01-19T20:41:23.285Z,49.77
2023-01-19T20:43:50.139Z,51.17
2023-01-19T20:46:16.659Z,47.27
2023-01-19T20:48:43.166Z,58.23
2023-01-19T20:51:12.409Z,49.23
2023-01-19T20:53:40.616Z,54.17
2023-01-19T20:56:11.232Z,51.37
2023-01-19T20:58:38.269Z,48.07
2023-01-19T21:01:11.813Z,49.80
2023-01-19T21:03:40.705Z,52.17
2023-01-19T21:06:07.171Z,61.27
2023-01-19T21:08:33.781Z,48.63
2023-01-19T21:11:00.559Z,54.90
2023-01-19T21:13:30.646Z,61.70
2023-01-19T21:15:57.176Z,58.20
2023-01-19T21:18:24.815Z,49.87
2023-01-19T21:20:51.173Z,50.53
2023-01-19T21:23:19.030Z,52.13
2023-01-19T21:25:57.588Z,62.17
2023-01-19T21:28:24.871Z,56.60
2023-01-19T21:30:52.793Z,51.37
2023-01-19T21:33:20.242Z,51.03
2023-01-19T21:35:54.885Z,46.70
2023-01-19T21:38:22.062Z,49.47
2023-01-19T21:40:48.535Z,41.70
2023-01-19T21:43:14.926Z,52.47
2023-01-19T21:45:43.101Z,54.23
2023-01-19T21:48:09.938Z,55.10
2023-01-19T21:50:36.867Z,52.80
2023-01-19T21:53:05.817Z,56.37
2023-01-19T21:55:32.889Z,57.67
2023-01-19T21:57:59.556Z,54.53
2023-01-19T22:00:29.332Z,42.67
2023-01-19T22:03:04.158Z,50.53
2023-01-19T22:05:41.040Z,44.17
2023-01-19T22:08:07.465Z,56.57
2023-01-19T22:10:37.618Z,61.07
2023-01-19T22:13:06.416Z,53.23
2023-01-19T22:15:32.779Z,63.83
2023-01-19T22:17:59.194Z,60.27
2023-01-19T22:20:25.622Z,53.10
2023-01-19T22:22:51.996Z,53.80
2023-01-19T22:25:21.868Z,54.13
2023-01-19T22:27:48.208Z,54.30
2023-01-19T22:30:14.800Z,62.37
2023-01-19T22:32:41.139Z,54.93
2023-01-19T22:35:07.790Z,62.23
2023-01-19T22:37:37.469Z,51.90
2023-01-19T22:40:04.894Z,53.07
2023-01-19T22:42:31.292Z,59.00
2023-01-19T22:44:57.631Z,57.07
2023-01-19T22:47:24.117Z,55.17
2023-01-19T22:49:50.438Z,56.57
2023-01-19T22:52:16.762Z,67.07
2023-01-19T22:54:43.083Z,58.20
2023-01-19T22:57:11.822Z,67.30
2023-01-19T22:59:38.199Z,54.93
2023-01-19T23:02:04.750Z,53.53
2023-01-19T23:04:31.206Z,61.70
2023-01-19T23:06:57.561Z,54.67
2023-01-19T23:09:23.953Z,67.43
2023-01-19T23:11:51.115Z,76.20
2023-01-19T23:14:20.146Z,66.10
2023-01-19T23:16:47.040Z,71.90
2023-01-19T23:19:14.361Z,66.13
2023-01-19T23:21:41.410Z,54.70
2023-01-19T23:24:08.457Z,59.60
2023-01-19T23:26:38.317Z,65.73
2023-01-19T23:29:08.192Z,76.20
2023-01-19T23:31:37.339Z,74.10
2023-01-19T23:34:08.977Z,78.00
2023-01-19T23:36:37.495Z,65.97
2023-01-19T23:39:06.944Z,68.10
2023-01-19T23:41:36.477Z,60.33
2023-01-19T23:44:03.706Z,75.27
2023-01-19T23:46:30.227Z,79.57
2023-01-19T23:48:56.688Z,66.60
2023-01-19T23:51:25.408Z,77.47
2023-01-19T23:53:52.412Z,70.97
2023-01-19T23:56:33.440Z,65.63
2023-01-19T23:59:02.620Z,74.37
